sensor_id;sensor_type;location;lat;lon;timestamp;pressure;altitude;pressure_sealevel;temperature;humidity
10127;BME280;13080;42.608;23.362;2023-04-23T00:01:48;152405.66;;;5.15;93.41
10127;BME280;13080;42.608;23.362;2023-04-23T00:04:15;152387.56;;;5.08;93.31
10127;BME280;13080;42.608;23.362;2023-04-23T00:06:43;152390.16;;;5.09;93.37
10127;BME280;13080;42.608;23.362;2023-04-23T00:09:14;152386.28;;;5.08;92.91
10127;BME280;13080;42.608;23.362;2023-04-23T00:11:41;152382.38;;;5.06;92.91
10127;BME280;13080;42.608;23.362;2023-04-23T00:14:08;152378.53;;;5.05;92.78
10127;BME280;13080;42.608;23.362;2023-04-23T00:16:36;152377.19;;;5.04;92.55
10127;BME280;13080;42.608;23.362;2023-04-23T00:19:03;152379.81;;;5.05;92.67
10127;BME280;13080;42.608;23.362;2023-04-23T00:21:29;152370.75;;;5.02;93.18
10127;BME280;13080;42.608;23.362;2023-04-23T00:23:56;152372.03;;;5.02;93.26
10127;BME280;13080;42.608;23.362;2023-04-23T00:26:25;152360.38;;;4.97;93.43
10127;BME280;13080;42.608;23.362;2023-04-23T00:28:51;152357.81;;;4.96;93.61
10127;BME280;13080;42.608;23.362;2023-04-23T00:31:18;152360.38;;;4.97;94.47
10127;BME280;13080;42.608;23.362;2023-04-23T00:33:46;152353.94;;;4.95;94.48
10127;BME280;13080;42.608;23.362;2023-04-23T00:36:13;152348.75;;;4.93;94.71
10127;BME280;13080;42.608;23.362;2023-04-23T00:38:40;152342.31;;;4.90;94.95
10127;BME280;13080;42.608;23.362;2023-04-23T00:41:07;152329.38;;;4.85;95.13
10127;BME280;13080;42.608;23.362;2023-04-23T00:43:35;152325.50;;;4.84;94.93
10127;BME280;13080;42.608;23.362;2023-04-23T00:46:02;152319.03;;;4.81;94.92
10127;BME280;13080;42.608;23.362;2023-04-23T00:48:29;152322.94;;;4.83;95.32
10127;BME280;13080;42.608;23.362;2023-04-23T00:50:57;152317.75;;;4.81;95.04
10127;BME280;13080;42.608;23.362;2023-04-23T00:53:25;152300.94;;;4.74;95.55
10127;BME280;13080;42.608;23.362;2023-04-23T00:55:52;152312.56;;;4.78;95.70
10127;BME280;13080;42.608;23.362;2023-04-23T00:58:20;152316.47;;;4.80;95.99
10127;BME280;13080;42.608;23.362;2023-04-23T01:00:49;152313.84;;;4.79;95.94
10127;BME280;13080;42.608;23.362;2023-04-23T01:03:16;152315.13;;;4.79;96.13
10127;BME280;13080;42.608;23.362;2023-04-23T01:05:46;152320.31;;;4.82;95.90
10127;BME280;13080;42.608;23.362;2023-04-23T01:08:14;152312.56;;;4.78;96.11
10127;BME280;13080;42.608;23.362;2023-04-23T01:10:42;152315.13;;;4.79;96.58
10127;BME280;13080;42.608;23.362;2023-04-23T01:13:10;152315.13;;;4.79;97.12
10127;BME280;13080;42.608;23.362;2023-04-23T01:15:37;152308.69;;;4.77;97.45
10127;BME280;13080;42.608;23.362;2023-04-23T01:18:06;152300.94;;;4.74;97.40
10127;BME280;13080;42.608;23.362;2023-04-23T01:20:33;152294.50;;;4.71;97.01
10127;BME280;13080;42.608;23.362;2023-04-23T01:23:01;152294.50;;;4.71;97.22
10127;BME280;13080;42.608;23.362;2023-04-23T01:25:28;152285.41;;;4.68;97.45
10127;BME280;13080;42.608;23.362;2023-04-23T01:27:55;152281.53;;;4.66;97.18
10127;BME280;13080;42.608;23.362;2023-04-23T01:30:23;152273.78;;;4.63;97.38
10127;BME280;13080;42.608;23.362;2023-04-23T01:32:51;152263.44;;;4.59;97.84
10127;BME280;13080;42.608;23.362;2023-04-23T01:35:19;152266.03;;;4.60;98.21
10127;BME280;13080;42.608;23.362;2023-04-23T01:37:48;152259.59;;;4.57;98.46
10127;BME280;13080;42.608;23.362;2023-04-23T01:40:17;152256.97;;;4.56;98.85
10127;BME280;13080;42.608;23.362;2023-04-23T01:42:44;152255.69;;;4.56;98.65
10127;BME280;13080;42.608;23.362;2023-04-23T01:45:11;152244.06;;;4.51;98.50
10127;BME280;13080;42.608;23.362;2023-04-23T01:47:39;152246.63;;;4.52;98.35
10127;BME280;13080;42.608;23.362;2023-04-23T01:50:07;152251.81;;;4.54;98.28
10127;BME280;13080;42.608;23.362;2023-04-23T01:52:34;152238.88;;;4.49;99.35
10127;BME280;13080;42.608;23.362;2023-04-23T01:55:01;152228.53;;;4.45;99.42
10127;BME280;13080;42.608;23.362;2023-04-23T01:57:29;152241.44;;;4.50;99.36
10127;BME280;13080;42.608;23.362;2023-04-23T02:00:03;152241.44;;;4.50;100.00
10127;BME280;13080;42.608;23.362;2023-04-23T02:02:32;152229.81;;;4.46;99.51
10127;BME280;13080;42.608;23.362;2023-04-23T02:05:00;152222.09;;;4.43;99.53
10127;BME280;13080;42.608;23.362;2023-04-23T02:07:29;152231.16;;;4.46;100.00
10127;BME280;13080;42.608;23.362;2023-04-23T02:09:56;152219.47;;;4.42;99.89
10127;BME280;13080;42.608;23.362;2023-04-23T02:12:22;152216.91;;;4.41;99.68
10127;BME280;13080;42.608;23.362;2023-04-23T02:14:51;152219.47;;;4.42;100.00
10127;BME280;13080;42.608;23.362;2023-04-23T02:17:19;152207.84;;;4.37;100.00
10127;BME280;13080;42.608;23.362;2023-04-23T02:19:47;152205.28;;;4.36;100.00
10127;BME280;13080;42.608;23.362;2023-04-23T02:22:14;152200.09;;;4.34;100.00
10127;BME280;13080;42.608;23.362;2023-04-23T02:24:40;152196.22;;;4.32;100.00
10127;BME280;13080;42.608;23.362;2023-04-23T02:27:08;152192.38;;;4.31;100.00
10127;BME280;13080;42.608;23.362;2023-04-23T02:29:35;152185.91;;;4.28;100.00
10127;BME280;13080;42.608;23.362;2023-04-23T02:32:04;152180.75;;;4.26;100.00
10127;BME280;13080;42.608;23.362;2023-04-23T02:34:31;152163.94;;;4.20;100.00
10127;BME280;13080;42.608;23.362;2023-04-23T02:36:57;152156.16;;;4.16;100.00
10127;BME280;13080;42.608;23.362;2023-04-23T02:39:24;152157.47;;;4.17;100.00
10127;BME280;13080;42.608;23.362;2023-04-23T02:41:51;152148.41;;;4.13;100.00
10127;BME280;13080;42.608;23.362;2023-04-23T02:44:17;152145.81;;;4.12;100.00
10127;BME280;13080;42.608;23.362;2023-04-23T02:46:44;152144.53;;;4.12;100.00
10127;BME280;13080;42.608;23.362;2023-04-23T02:49:13;152144.53;;;4.12;100.00
10127;BME280;13080;42.608;23.362;2023-04-23T02:51:40;152127.72;;;4.05;100.00
10127;BME280;13080;42.608;23.362;2023-04-23T02:54:07;152134.19;;;4.08;100.00
10127;BME280;13080;42.608;23.362;2023-04-23T02:56:34;152136.78;;;4.09;100.00
10127;BME280;13080;42.608;23.362;2023-04-23T02:59:00;152127.72;;;4.05;100.00
10127;BME280;13080;42.608;23.362;2023-04-23T03:01:27;152120.00;;;4.02;100.00
10127;BME280;13080;42.608;23.362;2023-04-23T03:03:54;152126.44;;;4.05;100.00
10127;BME280;13080;42.608;23.362;2023-04-23T03:06:23;152134.19;;;4.08;100.00
10127;BME280;13080;42.608;23.362;2023-04-23T03:08:49;152129.00;;;4.06;100.00
10127;BME280;13080;42.608;23.362;2023-04-23T03:11:16;152138.06;;;4.09;100.00
10127;BME280;13080;42.608;23.362;2023-04-23T03:13:43;152138.06;;;4.09;100.00
10127;BME280;13080;42.608;23.362;2023-04-23T03:16:10;152150.97;;;4.14;100.00
10127;BME280;13080;42.608;23.362;2023-04-23T03:18:37;152149.69;;;4.14;100.00
10127;BME280;13080;42.608;23.362;2023-04-23T03:21:04;152145.81;;;4.12;100.00
10127;BME280;13080;42.608;23.362;2023-04-23T03:23:33;152138.06;;;4.09;100.00
10127;BME280;13080;42.608;23.362;2023-04-23T03:26:00;152136.78;;;4.09;100.00
10127;BME280;13080;42.608;23.362;2023-04-23T03:28:26;152134.19;;;4.08;100.00
10127;BME280;13080;42.608;23.362;2023-04-23T03:30:53;152132.91;;;4.07;100.00
10127;BME280;13080;42.608;23.362;2023-04-23T03:33:20;152123.88;;;4.04;100.00
10127;BME280;13080;42.608;23.362;2023-04-23T03:35:47;152117.38;;;4.01;100.00
10127;BME280;13080;42.608;23.362;2023-04-23T03:38:14;152114.81;;;4.00;100.00
10127;BME280;13080;42.608;23.362;2023-04-23T03:40:42;152121.28;;;4.03;100.00
10127;BME280;13080;42.608;23.362;2023-04-23T03:43:10;152117.38;;;4.01;100.00
10127;BME280;13080;42.608;23.362;2023-04-23T03:45:36;152114.81;;;4.00;100.00
10127;BME280;13080;42.608;23.362;2023-04-23T03:48:03;152118.72;;;4.02;100.00
10127;BME280;13080;42.608;23.362;2023-04-23T03:50:30;152123.88;;;4.04;100.00
10127;BME280;13080;42.608;23.362;2023-04-23T03:52:59;152135.50;;;4.08;100.00
10127;BME280;13080;42.608;23.362;2023-04-23T03:55:27;152141.97;;;4.11;100.00
10127;BME280;13080;42.608;23.362;2023-04-23T03:57:55;152150.97;;;4.14;100.00
10127;BME280;13080;42.608;23.362;2023-04-23T04:00:22;152161.31;;;4.19;100.00
10127;BME280;13080;42.608;23.362;2023-04-23T04:02:48;152179.41;;;4.26;100.00
10127;BME280;13080;42.608;23.362;2023-04-23T04:05:15;152192.38;;;4.31;100.00
10127;BME280;13080;42.608;23.362;2023-04-23T04:07:42;152214.34;;;4.40;100.00
10127;BME280;13080;42.608;23.362;2023-04-23T04:10:09;152236.28;;;4.48;100.00
10127;BME280;13080;42.608;23.362;2023-04-23T04:12:36;152258.25;;;4.57;100.00
10127;BME280;13080;42.608;23.362;2023-04-23T04:15:05;152267.31;;;4.61;100.00
10127;BME280;13080;42.608;23.362;2023-04-23T04:17:32;152289.31;;;4.69;100.00
10127;BME280;13080;42.608;23.362;2023-04-23T04:19:59;152307.41;;;4.76;100.00
10127;BME280;13080;42.608;23.362;2023-04-23T04:22:25;152322.94;;;4.83;100.00
10127;BME280;13080;42.608;23.362;2023-04-23T04:24:52;152335.84;;;4.88;100.00
10127;BME280;13080;42.608;23.362;2023-04-23T04:27:19;152359.09;;;4.97;100.00
10127;BME280;13080;42.608;23.362;2023-04-23T04:29:46;152379.81;;;5.05;100.00
10127;BME280;13080;42.608;23.362;2023-04-23T04:32:15;152401.81;;;5.14;100.00
10127;BME280;13080;42.608;23.362;2023-04-23T04:34:43;152428.97;;;5.25;100.00
10127;BME280;13080;42.608;23.362;2023-04-23T04:37:09;152465.19;;;5.39;100.00
10127;BME280;13080;42.608;23.362;2023-04-23T04:39:37;152515.63;;;5.59;99.44
10127;BME280;13080;42.608;23.362;2023-04-23T04:42:04;152559.63;;;5.76;99.13
10127;BME280;13080;42.608;23.362;2023-04-23T04:44:32;152611.44;;;5.97;99.10
10127;BME280;13080;42.608;23.362;2023-04-23T04:47:01;152636.00;;;6.07;99.43
10127;BME280;13080;42.608;23.362;2023-04-23T04:49:29;152673.56;;;6.21;98.93
10127;BME280;13080;42.608;23.362;2023-04-23T04:51:56;152686.50;;;6.27;99.23
10127;BME280;13080;42.608;23.362;2023-04-23T04:54:23;152703.31;;;6.33;98.58
10127;BME280;13080;42.608;23.362;2023-04-23T04:56:50;152716.25;;;6.38;97.65
10127;BME280;13080;42.608;23.362;2023-04-23T04:59:16;152735.72;;;6.46;97.50
10127;BME280;13080;42.608;23.362;2023-04-23T05:01:43;152765.47;;;6.58;97.23
10127;BME280;13080;42.608;23.362;2023-04-23T05:04:10;152783.59;;;6.65;97.07
10127;BME280;13080;42.608;23.362;2023-04-23T05:06:38;152804.31;;;6.73;96.74
10127;BME280;13080;42.608;23.362;2023-04-23T05:09:05;152843.19;;;6.89;97.13
10127;BME280;13080;42.608;23.362;2023-04-23T05:11:32;152869.06;;;6.99;97.01
10127;BME280;13080;42.608;23.362;2023-04-23T05:14:00;152901.44;;;7.12;97.02
10127;BME280;13080;42.608;23.362;2023-04-23T05:16:28;152944.16;;;7.28;96.54
10127;BME280;13080;42.608;23.362;2023-04-23T05:18:55;152986.94;;;7.45;96.22
10127;BME280;13080;42.608;23.362;2023-04-23T05:21:21;153019.34;;;7.58;95.95
10127;BME280;13080;42.608;23.362;2023-04-23T05:23:50;153053.03;;;7.72;95.67
10127;BME280;13080;42.608;23.362;2023-04-23T05:26:16;153094.50;;;7.88;93.75
10127;BME280;13080;42.608;23.362;2023-04-23T05:28:43;153117.84;;;7.97;93.21
10127;BME280;13080;42.608;23.362;2023-04-23T05:31:10;153152.81;;;8.11;93.28
10127;BME280;13080;42.608;23.362;2023-04-23T05:33:37;153155.44;;;8.12;92.25
10127;BME280;13080;42.608;23.362;2023-04-23T05:36:04;153143.78;;;8.07;91.79
10127;BME280;13080;42.608;23.362;2023-04-23T05:38:32;153164.47;;;8.16;92.13
10127;BME280;13080;42.608;23.362;2023-04-23T05:41:00;153178.78;;;8.21;92.15
10127;BME280;13080;42.608;23.362;2023-04-23T05:43:27;153208.56;;;8.33;91.14
10127;BME280;13080;42.608;23.362;2023-04-23T05:45:54;153220.25;;;8.38;91.25
10127;BME280;13080;42.608;23.362;2023-04-23T05:48:20;153241.06;;;8.46;90.64
10127;BME280;13080;42.608;23.362;2023-04-23T05:50:47;153237.16;;;8.44;90.45
10127;BME280;13080;42.608;23.362;2023-04-23T05:53:14;153250.09;;;8.49;90.44
10127;BME280;13080;42.608;23.362;2023-04-23T05:55:41;153283.81;;;8.63;89.83
10127;BME280;13080;42.608;23.362;2023-04-23T05:58:09;153307.16;;;8.72;88.91
10127;BME280;13080;42.608;23.362;2023-04-23T06:00:36;153307.16;;;8.72;89.56
10127;BME280;13080;42.608;23.362;2023-04-23T06:03:05;153317.53;;;8.76;89.81
10127;BME280;13080;42.608;23.362;2023-04-23T06:05:32;153334.41;;;8.83;90.06
10127;BME280;13080;42.608;23.362;2023-04-23T06:08:00;153340.88;;;8.85;90.47
10127;BME280;13080;42.608;23.362;2023-04-23T06:10:27;153347.41;;;8.88;88.24
10127;BME280;13080;42.608;23.362;2023-04-23T06:12:54;153344.78;;;8.87;88.80
10127;BME280;13080;42.608;23.362;2023-04-23T06:15:23;153327.94;;;8.80;89.41
10127;BME280;13080;42.608;23.362;2023-04-23T06:17:51;153327.94;;;8.80;89.68
10127;BME280;13080;42.608;23.362;2023-04-23T06:20:18;153377.22;;;9.00;88.57
10127;BME280;13080;42.608;23.362;2023-04-23T06:22:45;153394.09;;;9.06;87.56
10127;BME280;13080;42.608;23.362;2023-04-23T06:25:11;153403.16;;;9.10;87.89
10127;BME280;13080;42.608;23.362;2023-04-23T06:27:38;153407.06;;;9.11;87.13
10127;BME280;13080;42.608;23.362;2023-04-23T06:30:06;153422.63;;;9.18;86.68
10127;BME280;13080;42.608;23.362;2023-04-23T06:32:34;153448.56;;;9.28;87.04
10127;BME280;13080;42.608;23.362;2023-04-23T06:35:03;153444.69;;;9.26;86.88
10127;BME280;13080;42.608;23.362;2023-04-23T06:37:30;153457.66;;;9.31;86.61
10127;BME280;13080;42.608;23.362;2023-04-23T06:39:57;153481.00;;;9.41;87.81
10127;BME280;13080;42.608;23.362;2023-04-23T06:42:24;153496.59;;;9.47;86.10
10127;BME280;13080;42.608;23.362;2023-04-23T06:44:51;153536.81;;;9.63;87.06
10127;BME280;13080;42.608;23.362;2023-04-23T06:47:18;153588.72;;;9.83;86.03
10127;BME280;13080;42.608;23.362;2023-04-23T06:49:46;153605.63;;;9.90;85.28
10127;BME280;13080;42.608;23.362;2023-04-23T06:52:13;153645.84;;;10.06;83.95
10127;BME280;13080;42.608;23.362;2023-04-23T06:54:40;153643.28;;;10.05;82.58
10127;BME280;13080;42.608;23.362;2023-04-23T06:57:06;153634.16;;;10.01;84.55
10127;BME280;13080;42.608;23.362;2023-04-23T06:59:33;153679.63;;;10.19;83.69
10127;BME280;13080;42.608;23.362;2023-04-23T07:02:00;153684.81;;;10.21;83.10
10127;BME280;13080;42.608;23.362;2023-04-23T07:04:27;153701.69;;;10.28;83.31
10127;BME280;13080;42.608;23.362;2023-04-23T07:06:55;153730.31;;;10.39;82.86
10127;BME280;13080;42.608;23.362;2023-04-23T07:09:21;154414.75;;;10.46;82.06
10127;BME280;13080;42.608;23.362;2023-04-23T07:11:48;153765.38;;;10.53;81.00
10127;BME280;13080;42.608;23.362;2023-04-23T07:14:15;153758.88;;;10.50;81.76
10127;BME280;13080;42.608;23.362;2023-04-23T07:16:42;153780.97;;;10.59;81.46
10127;BME280;13080;42.608;23.362;2023-04-23T07:19:08;153784.88;;;10.60;80.45
10127;BME280;13080;42.608;23.362;2023-04-23T07:21:35;153786.16;;;10.61;81.53
10127;BME280;13080;42.608;23.362;2023-04-23T07:24:03;153817.31;;;10.73;81.43
10127;BME280;13080;42.608;23.362;2023-04-23T07:26:31;153838.09;;;10.81;81.09
10127;BME280;13080;42.608;23.362;2023-04-23T07:28:58;153845.88;;;10.85;80.03
10127;BME280;13080;42.608;23.362;2023-04-23T07:31:25;153869.25;;;10.94;79.09
10127;BME280;13080;42.608;23.362;2023-04-23T07:33:52;153896.56;;;11.05;78.98
10127;BME280;13080;42.608;23.362;2023-04-23T07:36:19;153893.97;;;11.03;79.59
10127;BME280;13080;42.608;23.362;2023-04-23T07:38:46;153947.22;;;11.24;79.07
10127;BME280;13080;42.608;23.362;2023-04-23T07:41:14;153995.34;;;11.43;79.58
10127;BME280;13080;42.608;23.362;2023-04-23T07:43:41;154039.50;;;11.61;76.33
10127;BME280;13080;42.608;23.362;2023-04-23T07:46:08;154062.88;;;11.70;77.90
10127;BME280;13080;42.608;23.362;2023-04-23T07:48:36;154122.75;;;11.94;74.47
10127;BME280;13080;42.608;23.362;2023-04-23T07:51:03;154155.28;;;12.06;73.08
10127;BME280;13080;42.608;23.362;2023-04-23T07:53:30;154160.47;;;12.09;73.32
10127;BME280;13080;42.608;23.362;2023-04-23T07:55:57;154135.75;;;11.99;71.93
10127;BME280;13080;42.608;23.362;2023-04-23T07:58:25;154126.69;;;11.95;72.29
10127;BME280;13080;42.608;23.362;2023-04-23T08:00:52;154165.63;;;12.11;72.30
10127;BME280;13080;42.608;23.362;2023-04-23T08:03:19;154203.38;;;12.25;72.73
10127;BME280;13080;42.608;23.362;2023-04-23T08:05:46;154238.47;;;12.39;71.89
10127;BME280;13080;42.608;23.362;2023-04-23T08:08:13;154255.38;;;12.46;70.46
10127;BME280;13080;42.608;23.362;2023-04-23T08:10:40;154329.53;;;12.75;71.71
10127;BME280;13080;42.608;23.362;2023-04-23T08:13:07;154363.34;;;12.88;67.86
10127;BME280;13080;42.608;23.362;2023-04-23T08:15:35;154368.56;;;12.90;69.57
10127;BME280;13080;42.608;23.362;2023-04-23T08:18:03;154365.97;;;12.89;69.37
10127;BME280;13080;42.608;23.362;2023-04-23T08:20:30;154360.78;;;12.87;67.86
10127;BME280;13080;42.608;23.362;2023-04-23T08:22:57;154307.41;;;12.66;68.47
10127;BME280;13080;42.608;23.362;2023-04-23T08:25:24;154310.03;;;12.67;67.58
10127;BME280;13080;42.608;23.362;2023-04-23T08:27:51;154372.47;;;12.92;73.14
10127;BME280;13080;42.608;23.362;2023-04-23T08:30:17;154408.88;;;13.06;68.24
10127;BME280;13080;42.608;23.362;2023-04-23T08:32:48;154464.91;;;13.28;68.37
10127;BME280;13080;42.608;23.362;2023-04-23T08:35:17;154524.78;;;13.52;64.61
10127;BME280;13080;42.608;23.362;2023-04-23T08:37:44;154506.53;;;13.45;66.52
10127;BME280;13080;42.608;23.362;2023-04-23T08:40:11;154520.88;;;13.50;64.50
10127;BME280;13080;42.608;23.362;2023-04-23T08:42:41;154493.53;;;13.40;65.41
10127;BME280;13080;42.608;23.362;2023-04-23T08:45:10;154467.47;;;13.29;65.49
10127;BME280;13080;42.608;23.362;2023-04-23T08:47:38;154470.13;;;13.30;65.13
10127;BME280;13080;42.608;23.362;2023-04-23T08:50:09;154455.72;;;13.25;65.90
10127;BME280;13080;42.608;23.362;2023-04-23T08:52:39;154471.41;;;13.31;63.89
10127;BME280;13080;42.608;23.362;2023-04-23T08:55:07;154518.25;;;13.49;64.72
10127;BME280;13080;42.608;23.362;2023-04-23T08:57:37;154589.84;;;13.78;66.46
10127;BME280;13080;42.608;23.362;2023-04-23T09:00:06;154612.00;;;13.86;63.25
10127;BME280;13080;42.608;23.362;2023-04-23T09:02:35;154664.06;;;14.07;62.56
10127;BME280;13080;42.608;23.362;2023-04-23T09:05:02;154641.94;;;13.98;62.62
10127;BME280;13080;42.608;23.362;2023-04-23T09:07:32;154678.41;;;14.12;61.56
10127;BME280;13080;42.608;23.362;2023-04-23T09:10:00;154722.66;;;14.30;61.07
10127;BME280;13080;42.608;23.362;2023-04-23T09:12:27;154740.88;;;14.37;62.03
10127;BME280;13080;42.608;23.362;2023-04-23T09:14:54;154777.38;;;14.51;61.06
10127;BME280;13080;42.608;23.362;2023-04-23T09:17:22;154860.81;;;14.84;59.65
10127;BME280;13080;42.608;23.362;2023-04-23T09:19:50;154864.69;;;14.86;57.86
10127;BME280;13080;42.608;23.362;2023-04-23T09:22:40;154810.00;;;14.64;58.17
10127;BME280;13080;42.608;23.362;2023-04-23T09:25:08;154832.09;;;14.73;59.63
10127;BME280;13080;42.608;23.362;2023-04-23T09:27:35;154856.88;;;14.83;59.21
10127;BME280;13080;42.608;23.362;2023-04-23T09:30:02;154851.69;;;14.81;58.17
10127;BME280;13080;42.608;23.362;2023-04-23T09:32:32;154795.66;;;14.59;58.98
10127;BME280;13080;42.608;23.362;2023-04-23T09:35:01;154839.94;;;14.76;59.02
10127;BME280;13080;42.608;23.362;2023-04-23T09:37:28;154821.72;;;14.69;58.03
10127;BME280;13080;42.608;23.362;2023-04-23T09:39:59;154799.56;;;14.60;56.72
10127;BME280;13080;42.608;23.362;2023-04-23T09:42:27;154817.81;;;14.67;58.90
10127;BME280;13080;42.608;23.362;2023-04-23T09:44:58;154836.03;;;14.74;55.56
10127;BME280;13080;42.608;23.362;2023-04-23T09:47:31;154834.75;;;14.74;55.63
10127;BME280;13080;42.608;23.362;2023-04-23T09:49:58;154776.09;;;14.51;57.07
10127;BME280;13080;42.608;23.362;2023-04-23T09:52:25;154823.00;;;14.69;57.98
10127;BME280;13080;42.608;23.362;2023-04-23T09:54:55;154893.34;;;14.97;58.27
10127;BME280;13080;42.608;23.362;2023-04-23T09:57:24;154976.78;;;15.30;58.65
10127;BME280;13080;42.608;23.362;2023-04-23T09:59:51;155044.56;;;15.56;55.38
10127;BME280;13080;42.608;23.362;2023-04-23T10:02:18;155112.41;;;15.83;55.28
10127;BME280;13080;42.608;23.362;2023-04-23T10:04:49;155156.69;;;16.00;51.99
10127;BME280;13080;42.608;23.362;2023-04-23T10:07:17;155160.63;;;16.02;50.46
10127;BME280;13080;42.608;23.362;2023-04-23T10:09:45;155124.13;;;15.88;53.00
10127;BME280;13080;42.608;23.362;2023-04-23T10:12:12;155086.31;;;15.73;52.43
10127;BME280;13080;42.608;23.362;2023-04-23T10:14:41;155052.34;;;15.59;52.17
10127;BME280;13080;42.608;23.362;2023-04-23T10:17:09;155092.81;;;15.75;53.52
10127;BME280;13080;42.608;23.362;2023-04-23T10:19:36;155091.53;;;15.75;54.03
10127;BME280;13080;42.608;23.362;2023-04-23T10:22:09;155126.72;;;15.89;52.25
10127;BME280;13080;42.608;23.362;2023-04-23T10:24:38;155151.47;;;15.98;51.16
10127;BME280;13080;42.608;23.362;2023-04-23T10:27:10;155130.66;;;15.90;51.42
10127;BME280;13080;42.608;23.362;2023-04-23T10:29:37;155129.34;;;15.90;49.47
10127;BME280;13080;42.608;23.362;2023-04-23T10:32:05;155096.75;;;15.77;51.47
10127;BME280;13080;42.608;23.362;2023-04-23T10:34:32;155061.50;;;15.63;51.05
10127;BME280;13080;42.608;23.362;2023-04-23T10:37:00;155032.81;;;15.52;52.58
10127;BME280;13080;42.608;23.362;2023-04-23T10:39:29;154992.41;;;15.36;50.86
10127;BME280;13080;42.608;23.362;2023-04-23T10:41:58;155026.31;;;15.49;54.21
10127;BME280;13080;42.608;23.362;2023-04-23T10:44:31;155105.84;;;15.80;50.13
10127;BME280;13080;42.608;23.362;2023-04-23T10:47:00;155124.13;;;15.88;50.34
10127;BME280;13080;42.608;23.362;2023-04-23T10:49:31;155129.34;;;15.90;52.70
10127;BME280;13080;42.608;23.362;2023-04-23T10:51:58;155128.00;;;15.89;47.71
10127;BME280;13080;42.608;23.362;2023-04-23T10:54:30;155105.84;;;15.80;48.34
10127;BME280;13080;42.608;23.362;2023-04-23T10:56:59;155040.63;;;15.55;49.23
10127;BME280;13080;42.608;23.362;2023-04-23T10:59:28;154955.91;;;15.22;0.00
10127;BME280;13080;42.608;23.362;2023-04-23T11:01:56;154955.91;;;15.22;50.15
10127;BME280;13080;42.608;23.362;2023-04-23T11:04:28;154899.88;;;15.00;51.90
10127;BME280;13080;42.608;23.362;2023-04-23T11:06:57;154915.50;;;15.06;51.91
10127;BME280;13080;42.608;23.362;2023-04-23T11:09:31;154903.78;;;15.01;50.33
10127;BME280;13080;42.608;23.362;2023-04-23T11:12:05;154882.94;;;14.93;50.23
10127;BME280;13080;42.608;23.362;2023-04-23T11:14:34;154886.84;;;14.94;52.72
10127;BME280;13080;42.608;23.362;2023-04-23T11:17:02;154931.16;;;15.12;48.54
10127;BME280;13080;42.608;23.362;2023-04-23T11:19:29;154936.38;;;15.14;47.91
10127;BME280;13080;42.608;23.362;2023-04-23T11:22:02;154928.53;;;15.11;46.36
10127;BME280;13080;42.608;23.362;2023-04-23T11:24:32;154916.81;;;15.06;47.71
10127;BME280;13080;42.608;23.362;2023-04-23T11:27:05;154916.81;;;15.06;47.34
10127;BME280;13080;42.608;23.362;2023-04-23T11:29:35;154935.09;;;15.13;48.07
10127;BME280;13080;42.608;23.362;2023-04-23T11:32:03;154976.78;;;15.30;47.87
10127;BME280;13080;42.608;23.362;2023-04-23T11:34:35;155031.47;;;15.51;49.50
10127;BME280;13080;42.608;23.362;2023-04-23T11:37:03;155075.81;;;15.69;47.16
10127;BME280;13080;42.608;23.362;2023-04-23T11:39:31;155128.00;;;15.89;45.86
10127;BME280;13080;42.608;23.362;2023-04-23T11:41:58;155175.00;;;16.08;48.23
10127;BME280;13080;42.608;23.362;2023-04-23T11:44:27;155189.31;;;16.13;46.59
10127;BME280;13080;42.608;23.362;2023-04-23T11:46:54;155210.19;;;16.21;42.96
10127;BME280;13080;42.608;23.362;2023-04-23T11:49:21;155198.44;;;16.17;44.12
10127;BME280;13080;42.608;23.362;2023-04-23T11:51:47;155204.97;;;16.19;42.90
10127;BME280;13080;42.608;23.362;2023-04-23T11:54:24;155204.97;;;16.19;40.96
10127;BME280;13080;42.608;23.362;2023-04-23T11:56:52;155202.31;;;16.18;39.55
10127;BME280;13080;42.608;23.362;2023-04-23T11:59:19;155131.94;;;15.91;38.43
10127;BME280;13080;42.608;23.362;2023-04-23T12:01:48;155147.59;;;15.97;39.51
10127;BME280;13080;42.608;23.362;2023-04-23T12:04:18;155124.13;;;15.88;38.24
10127;BME280;13080;42.608;23.362;2023-04-23T12:06:46;155121.50;;;15.87;36.22
10127;BME280;13080;42.608;23.362;2023-04-23T12:09:14;155137.16;;;15.93;36.42
10127;BME280;13080;42.608;23.362;2023-04-23T12:11:43;155128.00;;;15.89;36.83
10127;BME280;13080;42.608;23.362;2023-04-23T12:14:11;155100.66;;;15.78;37.50
10127;BME280;13080;42.608;23.362;2023-04-23T12:16:40;155120.22;;;15.86;38.34
10127;BME280;13080;42.608;23.362;2023-04-23T12:19:07;155096.75;;;15.77;44.88
10127;BME280;13080;42.608;23.362;2023-04-23T12:21:46;155098.03;;;15.77;45.41
10127;BME280;13080;42.608;23.362;2023-04-23T12:24:14;155096.75;;;15.77;46.25
10127;BME280;13080;42.608;23.362;2023-04-23T12:26:42;155128.00;;;15.89;46.67
10127;BME280;13080;42.608;23.362;2023-04-23T12:29:12;155171.06;;;16.06;44.79
10127;BME280;13080;42.608;23.362;2023-04-23T12:31:39;155201.03;;;16.18;43.83
10127;BME280;13080;42.608;23.362;2023-04-23T12:34:09;155219.28;;;16.25;41.77
10127;BME280;13080;42.608;23.362;2023-04-23T12:36:37;155238.88;;;16.33;44.76
10127;BME280;13080;42.608;23.362;2023-04-23T12:39:23;155227.13;;;16.28;44.31
10127;BME280;13080;42.608;23.362;2023-04-23T12:41:53;155227.13;;;16.28;42.28
10127;BME280;13080;42.608;23.362;2023-04-23T12:44:21;155266.28;;;16.44;40.87
10127;BME280;13080;42.608;23.362;2023-04-23T12:46:49;155263.63;;;16.42;39.97